createdAt,value
2017-11-23T00:09:17.000Z,994.761
2017-11-23T00:29:17.000Z,994.584
2017-11-23T00:49:17.000Z,994.697
2017-11-23T00:59:17.000Z,994.648
2017-11-23T01:09:19.000Z,994.581
2017-11-23T01:19:17.000Z,994.45
2017-11-23T01:29:17.000Z,994.412
2017-11-23T01:39:17.000Z,994.298
2017-11-23T01:49:21.000Z,994.222
2017-11-23T01:59:17.000Z,994.066
2017-11-23T02:09:17.000Z,993.932
2017-11-23T02:19:17.000Z,993.819
2017-11-23T02:29:17.000Z,993.705
2017-11-23T02:39:17.000Z,993.577
2017-11-23T02:49:17.000Z,993.45
2017-11-23T02:59:17.000Z,993.406
2017-11-23T03:09:17.000Z,993.366
2017-11-23T03:19:17.000Z,993.234
2017-11-23T03:29:17.000Z,993.11
2017-11-23T03:39:17.000Z,993.061
2017-11-23T03:49:17.000Z,992.883
2017-11-23T03:59:17.000Z,993.016
2017-11-23T04:09:17.000Z,992.99
2017-11-23T04:19:17.000Z,992.806
2017-11-23T04:29:17.000Z,992.76
2017-11-23T04:39:17.000Z,992.646
2017-11-23T04:49:17.000Z,992.629
2017-11-23T04:59:17.000Z,992.642
2017-11-23T05:09:17.000Z,992.564
2017-11-23T05:19:17.000Z,992.577
2017-11-23T05:29:17.000Z,992.467
2017-11-23T05:39:17.000Z,992.381
2017-11-23T05:49:18.000Z,992.413
2017-11-23T05:59:18.000Z,992.533
2017-11-23T06:09:18.000Z,992.418
2017-11-23T06:19:18.000Z,992.336
2017-11-23T06:29:18.000Z,992.387
2017-11-23T06:39:18.000Z,992.264
2017-11-23T06:49:18.000Z,992.242
2017-11-23T06:59:18.000Z,992.176
2017-11-23T07:09:18.000Z,992
2017-11-23T07:19:18.000Z,992.11
2017-11-23T07:29:18.000Z,992.082
2017-11-23T07:49:18.000Z,992.038
2017-11-23T07:59:18.000Z,992.136
2017-11-23T08:09:18.000Z,992.11
2017-11-23T08:19:18.000Z,992.212
2017-11-23T08:29:18.000Z,992.127
2017-11-23T08:39:18.000Z,992.142
2017-11-23T08:49:18.000Z,992.307
2017-11-23T08:59:18.000Z,992.174
2017-11-23T09:09:18.000Z,992.155
2017-11-23T09:19:18.000Z,992.26
2017-11-23T09:29:18.000Z,992.248
2017-11-23T09:39:18.000Z,992.383
2017-11-23T09:49:18.000Z,992.364
2017-11-23T09:59:18.000Z,992.398
2017-11-23T10:09:19.000Z,992.436
2017-11-23T10:19:18.000Z,992.464
2017-11-23T10:29:18.000Z,992.618
2017-11-23T10:39:18.000Z,992.716
2017-11-23T10:49:18.000Z,993.075
2017-11-23T10:59:18.000Z,993.051
2017-11-23T11:09:18.000Z,993.265
2017-11-23T11:19:18.000Z,993.491
2017-11-23T11:29:18.000Z,993.686
2017-11-23T11:39:18.000Z,993.775
2017-11-23T11:49:18.000Z,993.897
2017-11-23T11:59:18.000Z,993.868
2017-11-23T12:09:18.000Z,993.827
2017-11-23T12:19:18.000Z,993.909
2017-11-23T12:29:18.000Z,994.051
2017-11-23T12:39:18.000Z,994.124
2017-11-23T12:49:18.000Z,994.16
2017-11-23T12:59:18.000Z,994.277
2017-11-23T13:09:18.000Z,994.44
2017-11-23T13:19:18.000Z,994.433
2017-11-23T13:29:18.000Z,994.613
2017-11-23T13:39:18.000Z,994.608
2017-11-23T13:49:18.000Z,994.603
2017-11-23T13:59:19.000Z,994.67
2017-11-23T14:09:19.000Z,994.669
2017-11-23T14:19:19.000Z,994.635
2017-11-23T14:29:19.000Z,994.694
2017-11-23T14:39:19.000Z,994.91
2017-11-23T14:49:19.000Z,994.991
2017-11-23T14:59:19.000Z,995.11
2017-11-23T15:09:19.000Z,995.11
2017-11-23T15:19:19.000Z,995.315
2017-11-23T15:29:19.000Z,995.489
2017-11-23T15:39:19.000Z,996.391
2017-11-23T15:49:19.000Z,996.936
2017-11-23T15:59:21.000Z,997.181
2017-11-23T16:09:19.000Z,997.45
2017-11-23T16:19:19.000Z,997.543
2017-11-23T16:29:19.000Z,997.687
2017-11-23T16:39:19.000Z,998.035
2017-11-23T16:49:19.000Z,998.209
2017-11-23T16:59:19.000Z,998.548
2017-11-23T17:09:19.000Z,998.815
2017-11-23T17:19:19.000Z,998.888
2017-11-23T17:29:19.000Z,999.045
2017-11-23T17:39:19.000Z,999.151
2017-11-23T17:49:19.000Z,999.409
2017-11-23T17:59:19.000Z,999.577
2017-11-23T18:09:19.000Z,999.782
2017-11-23T18:19:19.000Z,999.725
2017-11-23T18:29:19.000Z,999.706
2017-11-23T18:39:19.000Z,999.757
2017-11-23T18:49:19.000Z,999.826
2017-11-23T18:59:19.000Z,999.834
2017-11-23T19:09:19.000Z,999.805
2017-11-23T19:19:19.000Z,999.988
2017-11-23T19:29:19.000Z,1000.293
2017-11-23T19:39:19.000Z,1000.418
2017-11-23T19:49:19.000Z,1000.506
2017-11-23T19:59:19.000Z,1000.513
2017-11-23T20:09:19.000Z,1000.769
2017-11-23T20:19:19.000Z,1000.873
2017-11-23T20:29:19.000Z,1001.247
2017-11-23T20:39:19.000Z,1001.377
2017-11-23T20:49:19.000Z,1001.524
2017-11-23T20:59:19.000Z,1001.593
2017-11-23T21:09:19.000Z,1001.73
2017-11-23T21:19:20.000Z,1001.749
2017-11-23T21:29:19.000Z,1001.786
2017-11-23T21:39:19.000Z,1001.851
2017-11-23T21:49:19.000Z,1001.826
2017-11-23T21:59:19.000Z,1001.846
2017-11-23T22:09:19.000Z,1001.793
2017-11-23T22:19:19.000Z,1001.845
2017-11-23T22:29:21.000Z,1001.818
2017-11-23T22:39:20.000Z,1001.555
2017-11-23T22:49:20.000Z,1001.654
2017-11-23T22:59:20.000Z,1001.641
2017-11-23T23:09:20.000Z,1001.578
2017-11-23T23:19:20.000Z,1001.668
2017-11-23T23:29:20.000Z,1001.612
2017-11-23T23:39:20.000Z,1001.486
2017-11-23T23:49:20.000Z,1001.467
2017-11-23T23:59:20.000Z,1001.503
